Sloan, Nevada
Current Conditions -  °F | °C
As of 11:56 AM on Wednesday 28 Jan 2015 (Local Time) from KHND Reporting Station
Clear Clear  
Wind Chill: 58°   Ceiling: Unl
Heat Index: 58°   Visibility: 10mi
Dew Point: 46°   Wind: 5mph
Humidity: 65%   Direction: NA
Pressure: 30.25"   Gusts: NA
Location:  35.8437°N, 115.134°W
Report Text: KHND 281956Z VRB04KT 10SM CLR 14/08 A3025 RMK AO2 SLP244 T01440078
Loading
Personal Weather Stations






























Interactive Weather Map New forecast layout! Learn more

10-Day Weather Forecast

Advertisements
Track Severe Weather on mobile